»·PEaware :: N575TV KDTA-KHTH

N575TV :: KDTA-KHTH

FLIGHT INFORMATION

Flight Status: Arrived
Operator: Privately registered:
United States
More flights under this callsign
Pilot: Callum S. (24602)
Aircraft: DASSAULT AVIATION FALCON 50
(FA50)
More flights by this aircraft type
Origin: KDTA Delta Mun
United States
Destination: KHTH Hawthorne Mun
United States
More flights between these airports :: More routes between these airports
Route: DTA J84 MVA
File this flight plan on PilotEdge
Remarks:
Altitude:
(Current/Filed)
43,000ft
Speed:
(Current/Filed)
450kts
Departed: 17-Jan-20 01:27 PM
Arrived: 17-Jan-20 02:29 PM
Distance/Time
Traveled:
290nm/1:02
Distance/Time
To Go:
Arrived

Flight Plot

Page will automatically refresh every two minutes.

Flight plan parsing failed; only flown route is shown


Map Options




Map Legend


Flown Route
Filed Route
Departure Airport
Arrival Airport
Navaid (VOR, NDB)
Fix

Horizontal Profiles

Position Reports

Time Latitude Longitude Heading Altitude Ground
Speed
17-Jan-20 12:37 39.385693 -112.511376 45 4763ft 0kts
17-Jan-20 12:38 39.385693 -112.511376 45 4763ft 0kts
17-Jan-20 12:39 39.385693 -112.511376 45 4763ft 0kts
17-Jan-20 12:40 39.385693 -112.511376 45 4763ft 0kts
17-Jan-20 12:41 39.385693 -112.511376 45 4763ft 0kts
17-Jan-20 12:42 39.385693 -112.511376 45 4763ft 0kts
17-Jan-20 12:43 39.385693 -112.511376 45 4763ft 0kts
17-Jan-20 12:44 39.385693 -112.511376 45 4763ft 0kts
17-Jan-20 12:45 39.385693 -112.511376 45 4762ft 0kts
17-Jan-20 12:46 39.385693 -112.511376 45 4762ft 0kts
17-Jan-20 12:47 39.385693 -112.511376 45 4762ft 0kts
17-Jan-20 12:48 39.385693 -112.511376 45 4762ft 0kts
17-Jan-20 12:49 39.385693 -112.511376 45 4762ft 0kts
17-Jan-20 12:50 39.385693 -112.511376 45 4762ft 0kts
17-Jan-20 12:51 39.385693 -112.511376 45 4762ft 0kts
17-Jan-20 12:52 39.385693 -112.511376 45 4762ft 0kts
17-Jan-20 12:53 39.385693 -112.511376 45 4762ft 0kts
17-Jan-20 12:54 39.385693 -112.511376 45 4762ft 0kts
17-Jan-20 12:55 39.385693 -112.511376 45 4762ft 0kts
17-Jan-20 12:56 39.385694 -112.511375 45 4763ft 0kts
17-Jan-20 12:57 39.385694 -112.511375 45 4763ft 0kts
17-Jan-20 12:58 39.385695 -112.511374 45 4763ft 0kts
17-Jan-20 12:59 39.385790 -112.511250 45 4762ft 0kts
17-Jan-20 13:00 39.385792 -112.511247 45 4762ft 0kts
17-Jan-20 13:01 39.385793 -112.511245 45 4762ft 0kts
17-Jan-20 13:02 39.385795 -112.511243 45 4762ft 0kts
17-Jan-20 13:03 39.385797 -112.511241 45 4762ft 0kts
17-Jan-20 13:04 39.385797 -112.511240 45 4762ft 0kts
17-Jan-20 13:05 39.385798 -112.511240 45 4762ft 0kts
17-Jan-20 13:06 39.385799 -112.511237 45 4762ft 0kts
17-Jan-20 13:07 39.385831 -112.511009 167 4763ft 7kts
17-Jan-20 13:08 39.385721 -112.511056 215 4763ft 0kts
17-Jan-20 13:09 39.385719 -112.511058 215 4763ft 0kts
17-Jan-20 13:10 39.385717 -112.511060 215 4763ft 0kts
17-Jan-20 13:11 39.385478 -112.511191 214 4763ft 0kts
17-Jan-20 13:12 39.385476 -112.511193 214 4763ft 0kts
17-Jan-20 13:13 39.385474 -112.511195 214 4763ft 0kts
17-Jan-20 13:14 39.385471 -112.511197 214 4763ft 0kts
17-Jan-20 13:15 39.385469 -112.511199 214 4763ft 0kts
17-Jan-20 13:16 39.384566 -112.511064 135 4763ft 8kts
17-Jan-20 13:17 39.383877 -112.509915 56 4763ft 4kts
17-Jan-20 13:18 39.385763 -112.507851 39 4763ft 12kts
17-Jan-20 13:19 39.389075 -112.504327 37 4763ft 15kts
17-Jan-20 13:20 39.390640 -112.502628 39 4763ft 0kts
17-Jan-20 13:21 39.390642 -112.502625 39 4763ft 0kts
17-Jan-20 13:22 39.390644 -112.502623 39 4763ft 0kts
17-Jan-20 13:23 39.390646 -112.502621 39 4763ft 0kts
17-Jan-20 13:24 39.390648 -112.502619 39 4763ft 0kts
17-Jan-20 13:25 39.390765 -112.502359 130 4763ft 4kts
17-Jan-20 13:26 39.381065 -112.502257 181 4763ft 53kts
17-Jan-20 13:27 39.376250 -112.502305 332 4763ft 2kts
17-Jan-20 13:28 39.388868 -112.501760 357 4955ft 138kts
17-Jan-20 13:29 39.434069 -112.515236 296 8666ft 210kts
17-Jan-20 13:30 39.393109 -112.570747 177 13063ft 300kts
17-Jan-20 13:31 39.314586 -112.531699 205 16365ft 300kts
17-Jan-20 13:32 39.287228 -112.611352 276 20276ft 254kts
17-Jan-20 13:33 39.280552 -112.705032 274 23297ft 289kts
17-Jan-20 13:34 39.267352 -112.828655 270 23304ft 397kts
17-Jan-20 13:35 39.250976 -112.969592 270 23256ft 378kts
17-Jan-20 13:36 39.236219 -113.100489 271 23258ft 373kts
17-Jan-20 13:37 39.220898 -113.236113 270 23268ft 391kts
17-Jan-20 13:38 39.204625 -113.376813 270 23273ft 401kts
17-Jan-20 13:39 39.187835 -113.520264 270 23324ft 404kts
17-Jan-20 13:40 39.171603 -113.655418 272 27288ft 375kts
17-Jan-20 13:41 39.156045 -113.786353 272 31266ft 361kts
17-Jan-20 13:42 39.141174 -113.909172 271 34985ft 335kts
17-Jan-20 13:43 39.126847 -114.028776 269 37215ft 337kts
17-Jan-20 13:44 39.112247 -114.148047 268 39200ft 337kts
17-Jan-20 13:45 39.097497 -114.267358 267 40883ft 337kts
17-Jan-20 13:46 39.082639 -114.386449 265 42363ft 337kts
17-Jan-20 13:47 39.067498 -114.507043 264 43249ft 350kts
17-Jan-20 13:48 39.051143 -114.636418 264 43269ft 382kts
17-Jan-20 13:49 39.033228 -114.776124 264 43268ft 407kts
17-Jan-20 13:50 39.014516 -114.920081 264 43268ft 405kts
17-Jan-20 13:51 38.995952 -115.061865 264 43267ft 401kts
17-Jan-20 13:52 38.977358 -115.202750 264 43267ft 399kts
17-Jan-20 13:53 38.958591 -115.343581 264 43267ft 399kts
17-Jan-20 13:54 38.939649 -115.484347 263 43267ft 400kts
17-Jan-20 13:55 38.920536 -115.625024 263 43267ft 400kts
17-Jan-20 13:56 38.901242 -115.765720 263 43267ft 400kts
17-Jan-20 13:57 38.881798 -115.906190 263 43267ft 401kts
17-Jan-20 13:58 38.862085 -116.047295 263 43267ft 401kts
17-Jan-20 13:59 38.853401 -116.109052 263 43267ft 402kts
17-Jan-20 14:01 38.839025 -116.210741 263 43269ft 402kts
17-Jan-20 14:02 38.818909 -116.351926 263 43269ft 403kts
17-Jan-20 14:03 38.798571 -116.493384 263 43269ft 403kts
17-Jan-20 14:04 38.778029 -116.634951 263 42325ft 399kts
17-Jan-20 14:05 38.758307 -116.768585 265 39568ft 361kts
17-Jan-20 14:06 38.740312 -116.890664 266 36573ft 346kts
17-Jan-20 14:07 38.721858 -117.016679 265 33584ft 371kts
17-Jan-20 14:08 38.701916 -117.149573 266 30597ft 383kts
17-Jan-20 14:09 38.681828 -117.281731 265 27611ft 369kts
17-Jan-20 14:10 38.663031 -117.404393 265 24602ft 337kts
17-Jan-20 14:11 38.645480 -117.519401 264 21609ft 324kts
17-Jan-20 14:12 38.628432 -117.629820 264 18715ft 307kts
17-Jan-20 14:13 38.612706 -117.730546 264 16109ft 272kts
17-Jan-20 14:14 38.598497 -117.821722 263 13987ft 245kts
17-Jan-20 14:15 38.584591 -117.911178 263 13989ft 261kts
17-Jan-20 14:16 38.569949 -118.003843 262 12601ft 261kts
17-Jan-20 14:17 38.560606 -118.086141 267 11680ft 208kts
17-Jan-20 14:18 38.554859 -118.153147 267 10543ft 182kts
17-Jan-20 14:19 38.546925 -118.218140 259 8824ft 187kts
17-Jan-20 14:20 38.538004 -118.280201 260 7617ft 168kts
17-Jan-20 14:21 38.516915 -118.336224 236 7036ft 181kts
17-Jan-20 14:21 38.494825 -118.378154 238 6461ft 170kts
17-Jan-20 14:23 38.479402 -118.448038 271 7287ft 180kts
17-Jan-20 14:24 38.497297 -118.510554 295 6418ft 171kts
17-Jan-20 14:24 38.513296 -118.552792 295 5613ft 144kts
17-Jan-20 14:26 38.532497 -118.603129 294 4631ft 122kts
17-Jan-20 14:26 38.543471 -118.631927 295 4219ft 83kts
17-Jan-20 14:29 38.546954 -118.641752 212 4219ft 3kts

Navigation Log

Ident Type
Flight plan parsing failed, navigation log unavailable